Aviation Digital Data Service (ADDS)

Output produced by METARs form (1302 UTC 21 February 2018)
found at http://www.aviationweather.gov/adds/metars/
 
TAF AMD KCAR 211226Z 2112/2212 17010KT 1/4SM FG OVC002 
     FM211400 20007KT 6SM -DZ BR OVC007 WS020/24040KT 
     FM211700 22008KT P6SM VCSH OVC020 WS020/24040KT 
     FM212200 29007KT P6SM BKN030
       
TAF AMD KCBM 201445Z 2014/2115 17012KT 9999 OVC010 QNH3018INS 
     BECMG 2017/2018 16015KT 9999 BKN020 QNH3018INS 
     BECMG 2020/2021 16015KT 9999 SCT030 QNH3018INS 
     BECMG 2105/2106 16009KT 9999 VCSH OVC010 QNH3025INS TX27/2020Z TN18/2014Z
       
TAF KCEF 201100Z 2011/2117 20009KT 6000 -RA BR OVC005 WS020/21040KT QNH3023INS 
     BECMG 2015/2016 21012KT 9999 NSW OVC007 QNH3024INS 
     BECMG 2017/2018 21012KT 9999 BKN015 BKN030 QNH3023INS 
     BECMG 2103/2104 20009KT 4800 BR OVC007 WS020/21040KT QNH3018INS TX17/2021Z TN08/2011Z
       
KCGI 211235Z 2113/2212 36012KT P6SM -RA SCT012 BKN030 
     FM211400 36015KT 6SM RA BR SCT009 OVC015 
     TEMPO 2114/2118 4SM RA BR OVC009 
     FM211800 01012KT 5SM RA BR OVC015 
     FM220000 02012KT 5SM -RA BR SCT015 OVC025
       
KCLE 201455Z 2015/2118 20018G28KT P6SM VCSH SCT060 BKN100 
     TEMPO 2016/2018 20027G37KT 
     FM210000 19014KT P6SM SCT060 BKN200 
     FM211100 21012KT 6SM SHRA SCT040 OVC080 
     FM211400 29012KT 3SM -RA BR BKN008 OVC020
       
KCLL 211254Z 2113/2212 34015KT 5SM -RA OVC005 
     FM211800 35012KT 3SM -RA BR BKN007 
     FM220900 35008KT 1 1/2SM BR VCSH OVC004
       
KCLT 201346Z 2014/2118 00000KT 1/4SM FG VV002 
     TEMPO 2014/2016 2SM BR OVC002 
     FM201600 19004KT 4SM BR OVC003 
     FM201800 19005KT P6SM OVC006 
     FM202100 15004KT P6SM BKN022 
     FM210400 16005KT 5SM BR BKN006 
     FM210700 18005KT 2SM BR OVC003 
     FM211500 19007KT P6SM OVC006
       
TAF KCOF 201100Z 2011/2117 13009KT 9999 FEW025 QNH3026INS 
     BECMG 2014/2015 13015KT 9999 BKN025 QNH3022INS 
     BECMG 2018/2019 14012G20KT 9000 -SHRA BKN020 QNH3020INS 
     BECMG 2023/2024 14015KT 9999 NSW BKN015 QNH3029INS 
     BECMG 2115/2116 13012KT 9999 BKN030 QNH3028INS TX28/2018Z TN22/2011Z FCST BY USAF WX MET TECH
       
KCVG 201457Z 2015/2118 20020G28KT P6SM FEW050 BKN250 
     FM202200 19012G20KT P6SM BKN035 
     FM210900 20014G22KT P6SM VCSH BKN025 OVC050 
     FM211300 32012KT 5SM -SHRA BR OVC012
       
TAF KCVS 201003Z 2010/2116 20012KT 9999 SKC QNH2973INS 
     BECMG 2015/2016 24012G18KT 9999 SKC QNH2988INS 
     TEMPO 2018/2023 24015G25KT 
     BECMG 2102/2103 21012KT 9999 SKC QNH3011INS 
     BECMG 2105/2106 09006KT 9999 SCT050 QNH3008INS 
     BECMG 2108/2109 09009KT 8000 -SHRA FEW015 BKN030 610303 QNH3009INS 
     TEMPO 2109/2112 09015G20KT TX16/2021Z TNM04/2110Z